Nearby METAR Reports

KLNK - Lincoln, Nebraska, USA
Distance from station: WNW 8mi, 13km
Updated: Thu, 18-Apr-2024 10:54am CDT
Overcast
Overcast
 Wind from N
Wind: N 23 mph, 37 km/h, Gust: 31 mph, 50 km/h
Temperature: 46°F, 8°C
Wind Chill: 38°F, 3°C
Dew Point: 36°F, 2°C
Humidity: 66%
Barometer: 30.18 inHg, 1022 hPa
Clouds: Overcast
Visibility: 10 miles, 16 km
Cloud details: Mostly Cloudy 4100 ft
Overcast 9500 ft
2024/04/18 15:54 KLNK 181554Z 36020G27KT 10SM BKN041 OVC095 08/02 A3018 RMK AO2 PK WND 01027/1553 SLP222 T00830022
KAHQ - Wahoo, Nebraska, USA
Distance from station: N 31mi, 49km
Updated: Sat, 13-Apr-2024 6:10pm CDT
NOT Current
Clear
Clear
 Wind from SSW
Wind: SSW 6 mph, 9 km/h
Temperature: 84°F, 29°C
Dew Point: 45°F, 7°C
Humidity: 25%
Barometer: 29.71 inHg, 1006.1 hPa
Clouds: Clear
Visibility: 10 miles, 16 km
2024/04/13 23:10 KAHQ 132310Z AUTO 21005KT 10SM CLR 29/07 A2971 RMK AO2 T02890069
 
KBIE - Beatrice Municip, Nebraska, USA
Distance from station: S 36mi, 57km
Updated: Thu, 18-Apr-2024 10:55am CDT
Overcast
Overcast
 Wind from N
Wind: N 23 mph, 37 km/h, Gust: 29 mph, 46 km/h
Temperature: 45°F, 7°C
Wind Chill: 36°F, 2°C
Dew Point: 39°F, 4°C
Humidity: 81%
Barometer: 30.15 inHg, 1021 hPa
Clouds: Overcast
Visibility: 10 miles, 16 km
Cloud details: Overcast 7000 ft
2024/04/18 15:55 KBIE 181555Z AUTO 01020G25KT 10SM OVC070 07/04 A3015 RMK AO2 T00700043
KMLE - Omaha/Millard, Nebraska, USA
Distance from station: NE 39mi, 63km
Updated: Thu, 18-Apr-2024 10:55am CDT
Light rain, Overcast
Light rain, Overcast
 Wind from N
Wind: N 13 mph, 20 km/h
Temperature: 45°F, 7°C
Wind Chill: 39°F, 4°C
Dew Point: 39°F, 4°C
Humidity: 81%
Barometer: 30.18 inHg, 1022 hPa
Summary: Light Rain
Clouds: Overcast
Visibility: 10 miles, 16 km
Cloud details: Partly Cloudy 3200 ft
Partly Cloudy 4200 ft
Overcast 9000 ft
2024/04/18 15:55 KMLE 181555Z AUTO 36011KT 320V020 10SM -RA SCT032 SCT042 OVC090 07/04 A3018 RMK AO2 T00700039
 
KPMV - Plattsmouth Muni, Nebraska, USA
Distance from station: ENE 39mi, 63km
Updated: Thu, 18-Apr-2024 10:55am CDT

 Wind from N
Wind: N 13 mph, 20 km/h
Temperature: 46°F, 8°C
Wind Chill: 40°F, 4°C
Dew Point: 41°F, 5°C
Humidity: 82%
Barometer: 30.15 inHg, 1021 hPa
2024/04/18 15:55 KPMV 181555Z AUTO 35011KT 08/05 A3015 RMK AO2 P0003 T00800053 PWINO
KAFK - Nebraska City, Nebraska, USA
Distance from station: ESE 43mi, 69km
Updated: Thu, 18-Apr-2024 10:55am CDT
Overcast
Overcast
 Wind from NNE
Wind: NNE 15 mph, 24 km/h
Temperature: 45°F, 7°C
Wind Chill: 38°F, 3°C
Dew Point: 41°F, 5°C
Humidity: 87%
Barometer: 30.14 inHg, 1020.7 hPa
Clouds: Overcast
Visibility: 10 miles, 16 km
Cloud details: Overcast 1100 ft
2024/04/18 15:55 KAFK 181555Z AUTO 02013KT 10SM OVC011 07/05 A3014 RMK AO2 T00690053
 
KOFF - Offutt Afb/Belle, Nebraska, USA
Distance from station: ENE 44mi, 70km
Updated: Thu, 18-Apr-2024 10:56am CDT
Drizzle, Overcast
Drizzle, Overcast
 Wind from N
Wind: N 9 mph, 15 km/h, Gust: 18 mph, 30 km/h
Temperature: 46°F, 8°C
Wind Chill: 41°F, 5°C
Dew Point: 41°F, 5°C
Humidity: 82%
Barometer: 30.15 inHg, 1021 hPa
Summary: Drizzle
Clouds: Overcast
Visibility: 10 miles, 16 km
Cloud details: Few Clouds 1200 ft
Partly Cloudy 3400 ft
Mostly Cloudy 4500 ft
Overcast 9000 ft
2024/04/18 15:56 KOFF 181556Z 36008G16KT 10SM DZ FEW012 SCT034 BKN045 OVC090 08/05 A3015 RMK DZB56 SLP217 P0000 T00840051
KFET - Fremont Muni Arp, Nebraska, USA
Distance from station: N 46mi, 74km
Updated: Thu, 18-Apr-2024 10:55am CDT
Overcast
Overcast
 Wind from NNW
Wind: NNW 15 mph, 24 km/h
Temperature: 45°F, 7°C
Wind Chill: 38°F, 3°C
Dew Point: 34°F, 1°C
Humidity: 66%
Barometer: 30.20 inHg, 1022.7 hPa
Clouds: Overcast
Visibility: 10 miles, 16 km
Cloud details: Overcast 9500 ft
2024/04/18 15:55 KFET 181555Z AUTO 33013KT 10SM OVC095 07/01 A3020 RMK AO2 T00710010
 
KBTA - Blair Muni, Nebraska, USA
Distance from station: NNE 51mi, 82km
Updated: Thu, 18-Apr-2024 10:55am CDT
Partly Cloudy
Partly Cloudy
 Wind from N
Wind: N 12 mph, 19 km/h, Gust: 18 mph, 30 km/h
Temperature: 45°F, 7°C
Wind Chill: 39°F, 4°C
Dew Point: 39°F, 4°C
Humidity: 81%
Barometer: 30.17 inHg, 1021.7 hPa
Clouds: Partly Cloudy
Visibility: 10 miles, 16 km
Cloud details: Partly Cloudy 6000 ft
Partly Cloudy 8000 ft
2024/04/18 15:55 KBTA 181555Z AUTO 35010G16KT 10SM SCT060 SCT080 07/04 A3017 RMK AO2 T00670039
KJYR - York, Nebraska, USA
Distance from station: W 52mi, 84km
Updated: Thu, 18-Apr-2024 10:55am CDT
Mostly Cloudy
Mostly Cloudy
 Wind from N
Wind: N 26 mph, 43 km/h, Gust: 33 mph, 54 km/h
Temperature: 45°F, 7°C
Wind Chill: 36°F, 2°C
Dew Point: 32°F, 0°C
Humidity: 61%
Barometer: 30.20 inHg, 1022.7 hPa
Clouds: Mostly Cloudy
Visibility: 10 miles, 16 km
Cloud details: Mostly Cloudy 10000 ft
2024/04/18 15:55 KJYR 181555Z AUTO 36023G29KT 10SM BKN100 07/00 A3020 RMK AO2
 
KOMA - Omaha/Eppley, Nebraska, USA
Distance from station: NE 53mi, 85km
Updated: Thu, 18-Apr-2024 10:52am CDT
Light rain, Overcast
Light rain, Overcast
 Wind from NNW
Wind: NNW 17 mph, 28 km/h
Temperature: 45°F, 7°C
Wind Chill: 38°F, 3°C
Dew Point: 43°F, 6°C
Humidity: 93%
Barometer: 30.17 inHg, 1021.7 hPa
Summary: Light Rain
Clouds: Overcast
Visibility: 10 miles, 16 km
Cloud details: Mostly Cloudy 4800 ft
Overcast 7000 ft
2024/04/18 15:52 KOMA 181552Z 33015KT 10SM -RA BKN048 OVC070 07/06 A3017 RMK AO2 SLP217 P0001 T00720056
KOLU - Columbus Muni, Nebraska, USA
Distance from station: NW 58mi, 93km
Updated: Thu, 18-Apr-2024 10:56am CDT
Overcast
Overcast
 Wind from N
Wind: N 16 mph, 26 km/h, Gust: 22 mph, 35 km/h
Temperature: 45°F, 7°C
Wind Chill: 38°F, 3°C
Dew Point: 34°F, 1°C
Humidity: 66%
Barometer: 30.23 inHg, 1023.7 hPa
Clouds: Overcast
Visibility: 10 miles, 16 km
Cloud details: Overcast 11000 ft
2024/04/18 15:56 KOLU 181556Z AUTO 35014G19KT 10SM OVC110 07/01 A3023 RMK AO2 SLP243 T00720011